createdAt,value
2022-08-12T00:00:00.488Z,19.33
2022-08-12T00:03:02.257Z,19.34
2022-08-12T00:06:05.305Z,19.33
2022-08-12T00:09:07.540Z,19.37
2022-08-12T00:12:09.197Z,19.36
2022-08-12T00:15:14.960Z,19.38
2022-08-12T00:18:16.598Z,19.46
2022-08-12T00:21:18.881Z,19.39
2022-08-12T00:24:21.433Z,19.41
2022-08-12T00:27:26.220Z,19.46
2022-08-12T00:30:46.315Z,19.47
2022-08-12T00:33:51.749Z,19.25
2022-08-12T00:36:57.451Z,19.35
2022-08-12T00:40:04.721Z,18.88
2022-08-12T00:43:09.807Z,18.69
2022-08-12T00:46:12.849Z,18.68
2022-08-12T00:49:15.051Z,18.61
2022-08-12T00:52:17.165Z,18.65
2022-08-12T00:55:19.206Z,18.79
2022-08-12T00:58:23.632Z,18.81
2022-08-12T01:01:26.786Z,18.52
2022-08-12T01:04:29.374Z,18.64
2022-08-12T01:07:33.399Z,18.62
2022-08-12T01:10:36.637Z,18.67
2022-08-12T01:13:39.963Z,18.23
2022-08-12T01:16:43.393Z,18.29
2022-08-12T01:19:45.652Z,18.31
2022-08-12T01:22:55.685Z,18.34
2022-08-12T01:25:59.651Z,18.35
2022-08-12T01:29:01.358Z,18.16
2022-08-12T01:32:04.573Z,18.07
2022-08-12T01:35:08.032Z,18.16
2022-08-12T01:38:11.271Z,18.08
2022-08-12T01:41:16.454Z,17.99
2022-08-12T01:44:20.530Z,18.13
2022-08-12T01:47:33.179Z,17.91
2022-08-12T01:50:47.191Z,17.95
2022-08-12T01:53:55.130Z,17.88
2022-08-12T01:57:01.781Z,17.80
2022-08-12T02:00:06.547Z,18.01
2022-08-12T02:03:16.758Z,18.08
2022-08-12T02:06:22.416Z,18.09
2022-08-12T02:09:28.662Z,18.22
2022-08-12T02:12:39.177Z,18.18
2022-08-12T02:15:45.326Z,18.26
2022-08-12T02:18:49.094Z,18.24
2022-08-12T02:21:55.379Z,18.21
2022-08-12T02:25:01.120Z,18.15
2022-08-12T02:28:05.976Z,17.74
2022-08-12T02:31:10.125Z,17.74
2022-08-12T02:34:12.713Z,17.39
2022-08-12T02:37:14.717Z,17.55
2022-08-12T02:40:17.321Z,17.51
2022-08-12T02:43:26.325Z,17.62
2022-08-12T02:46:29.257Z,17.44
2022-08-12T02:49:32.556Z,17.15
2022-08-12T02:52:34.862Z,17.10
2022-08-12T02:55:36.582Z,17.24
2022-08-12T02:58:41.246Z,17.29
2022-08-12T03:01:48.474Z,17.27
2022-08-12T03:04:53.035Z,17.14
2022-08-12T03:07:59.239Z,17.19
2022-08-12T03:11:03.886Z,17.10
2022-08-12T03:14:10.075Z,17.07
2022-08-12T03:17:15.797Z,17.10
2022-08-12T03:20:19.121Z,17.10
2022-08-12T03:23:29.147Z,16.92
2022-08-12T03:26:34.555Z,16.88
2022-08-12T03:29:50.075Z,16.87
2022-08-12T03:32:54.209Z,16.93
2022-08-12T03:35:58.137Z,16.80
2022-08-12T03:39:00.946Z,16.74
2022-08-12T03:42:08.555Z,16.71
2022-08-12T03:45:22.072Z,16.62
2022-08-12T03:48:24.768Z,16.74
2022-08-12T03:51:26.889Z,16.72
2022-08-12T03:54:28.587Z,16.78
2022-08-12T03:57:30.244Z,16.69
2022-08-12T04:00:35.040Z,16.77
2022-08-12T04:03:37.278Z,16.60
2022-08-12T04:06:41.980Z,16.74
2022-08-12T04:09:44.293Z,16.64
2022-08-12T04:12:55.557Z,16.57
2022-08-12T04:16:01.326Z,16.56
2022-08-12T04:19:03.113Z,16.32
2022-08-12T04:22:04.905Z,16.58
2022-08-12T04:25:08.707Z,16.24
2022-08-12T04:28:13.780Z,16.14
2022-08-12T04:31:17.356Z,16.32
2022-08-12T04:34:18.997Z,16.31
2022-08-12T04:37:20.721Z,16.43
2022-08-12T04:40:28.276Z,16.13
2022-08-12T04:44:00.077Z,16.03
2022-08-12T04:46:53.770Z,16.03
2022-08-12T04:49:55.383Z,16.32
2022-08-12T04:52:57.296Z,16.56
2022-08-12T04:55:59.185Z,16.62
2022-08-12T04:59:00.946Z,16.49
2022-08-12T05:02:04.219Z,16.44
2022-08-12T05:05:16.129Z,16.70
2022-08-12T05:08:17.898Z,16.52
2022-08-12T05:11:21.228Z,16.17
2022-08-12T05:14:23.020Z,16.10
2022-08-12T05:17:27.960Z,16.24
2022-08-12T05:20:30.076Z,16.32
2022-08-12T05:23:31.793Z,16.47
2022-08-12T05:26:33.484Z,16.55
2022-08-12T05:30:07.559Z,16.34
2022-08-12T05:32:59.999Z,16.31
2022-08-12T05:36:02.237Z,16.42
2022-08-12T05:39:04.069Z,16.63
2022-08-12T05:42:05.940Z,16.42
2022-08-12T05:45:08.395Z,16.38
2022-08-12T05:48:11.402Z,16.58
2022-08-12T05:51:13.075Z,16.59
2022-08-12T05:54:14.751Z,16.64
2022-08-12T05:57:16.456Z,16.77
2022-08-12T06:00:18.250Z,16.71
2022-08-12T06:03:21.417Z,16.76
2022-08-12T06:06:27.404Z,16.79
2022-08-12T06:09:29.391Z,16.86
2022-08-12T06:12:31.126Z,16.82
2022-08-12T06:15:33.530Z,16.86
2022-08-12T06:18:37.873Z,16.81
2022-08-12T06:21:39.619Z,16.83
2022-08-12T06:24:41.807Z,16.96
2022-08-12T06:28:05.905Z,16.84
2022-08-12T06:35:25.781Z,16.82
2022-08-12T06:37:56.637Z,17.04
2022-08-12T06:41:00.593Z,17.22
2022-08-12T06:44:04.781Z,17.18
2022-08-12T06:47:09.409Z,17.13
2022-08-12T06:50:13.041Z,17.00
2022-08-12T06:53:14.710Z,16.84
2022-08-12T06:56:16.381Z,17.02
2022-08-12T06:59:18.125Z,17.20
2022-08-12T07:02:19.986Z,17.16
2022-08-12T07:05:23.569Z,17.27
2022-08-12T07:08:26.114Z,17.43
2022-08-12T07:11:28.247Z,17.43
2022-08-12T07:14:29.931Z,17.33
2022-08-12T07:17:31.561Z,17.39
2022-08-12T07:20:51.744Z,17.39
2022-08-12T07:23:54.562Z,17.46
2022-08-12T07:26:56.387Z,17.55
2022-08-12T07:30:04.164Z,17.30
2022-08-12T07:33:08.127Z,17.33
2022-08-12T07:36:12.052Z,17.58
2022-08-12T07:39:13.729Z,17.63
2022-08-12T07:42:17.854Z,17.76
2022-08-12T07:45:20.138Z,17.71
2022-08-12T07:48:22.669Z,17.85
2022-08-12T07:51:25.975Z,17.97
2022-08-12T07:54:27.754Z,18.14
2022-08-12T07:57:29.708Z,17.90
2022-08-12T08:00:32.948Z,18.02
2022-08-12T08:03:34.806Z,18.00
2022-08-12T08:06:50.655Z,18.18
2022-08-12T08:09:58.511Z,18.23
2022-08-12T08:13:01.187Z,18.45
2022-08-12T08:16:04.067Z,18.46
2022-08-12T08:19:06.357Z,18.53
2022-08-12T08:22:09.382Z,18.67
2022-08-12T08:25:20.485Z,18.69
2022-08-12T08:28:33.248Z,18.73
2022-08-12T08:31:34.921Z,18.77
2022-08-12T08:34:54.540Z,18.77
2022-08-12T08:38:06.405Z,18.74
2022-08-12T08:41:08.134Z,18.83
2022-08-12T08:44:09.878Z,18.94
2022-08-12T08:47:12.520Z,19.00
2022-08-12T08:50:14.743Z,19.15
2022-08-12T08:53:17.841Z,19.27
2022-08-12T08:56:19.666Z,19.36
2022-08-12T08:59:21.366Z,19.37
2022-08-12T09:02:23.084Z,19.54
2022-08-12T09:05:25.838Z,19.66
2022-08-12T09:08:29.192Z,19.71
2022-08-12T09:12:06.450Z,19.65
2022-08-12T09:14:53.085Z,19.71
2022-08-12T09:17:55.736Z,19.89
2022-08-12T09:20:59.079Z,20.01
2022-08-12T09:24:06.020Z,20.02
2022-08-12T09:27:12.184Z,20.00
2022-08-12T09:30:14.514Z,19.79
2022-08-12T09:33:19.405Z,19.71
2022-08-12T09:37:00.585Z,19.53
2022-08-12T09:40:55.569Z,19.50
2022-08-12T09:43:24.928Z,19.71
2022-08-12T09:46:27.164Z,19.74
2022-08-12T09:49:28.898Z,20.11
2022-08-12T09:52:31.765Z,20.34
2022-08-12T09:56:05.748Z,20.15
2022-08-12T09:59:01.315Z,20.19
2022-08-12T10:02:52.819Z,20.32
2022-08-12T10:06:27.638Z,20.44
2022-08-12T10:08:52.221Z,20.53
2022-08-12T10:12:12.038Z,20.84
2022-08-12T10:15:15.093Z,20.92
2022-08-12T10:18:36.134Z,21.32
2022-08-12T10:21:38.243Z,20.78
2022-08-12T10:24:39.869Z,21.20
2022-08-12T10:28:04.768Z,21.30
2022-08-12T10:31:05.478Z,21.68
2022-08-12T10:34:14.928Z,21.77
2022-08-12T10:38:33.281Z,21.94
2022-08-12T10:40:47.437Z,22.01
2022-08-12T10:43:56.033Z,21.98
2022-08-12T10:46:58.320Z,21.77
2022-08-12T10:50:28.549Z,21.36
2022-08-12T10:53:44.054Z,21.46
2022-08-12T10:56:45.250Z,21.70
2022-08-12T11:00:31.892Z,21.78
2022-08-12T11:04:26.256Z,21.54
2022-08-12T11:07:07.467Z,21.81
2022-08-12T11:09:59.831Z,21.85
2022-08-12T11:13:04.055Z,22.00
2022-08-12T11:16:22.660Z,21.74
2022-08-12T11:19:25.174Z,21.38
2022-08-12T11:22:26.869Z,21.02
2022-08-12T11:25:55.422Z,20.85
2022-08-12T11:28:59.128Z,20.90
2022-08-12T11:32:08.722Z,20.68
2022-08-12T11:35:11.478Z,20.69
2022-08-12T11:38:13.548Z,21.09
2022-08-12T11:41:31.305Z,21.06
2022-08-12T11:44:37.257Z,21.33
2022-08-12T11:47:46.147Z,21.50
2022-08-12T11:50:48.115Z,21.59
2022-08-12T11:53:56.947Z,21.41
2022-08-12T11:57:02.985Z,21.75
2022-08-12T12:02:01.888Z,21.89
2022-08-12T12:03:46.737Z,22.10
2022-08-12T12:06:53.080Z,22.36
2022-08-12T12:09:55.724Z,22.55
2022-08-12T12:12:57.679Z,22.79
2022-08-12T12:16:00.251Z,23.10
2022-08-12T12:19:03.333Z,23.26
2022-08-12T12:22:05.035Z,23.52
2022-08-12T12:25:12.509Z,23.43
2022-08-12T12:28:36.529Z,23.37
2022-08-12T12:32:09.940Z,23.12
2022-08-12T12:35:13.784Z,23.33
2022-08-12T12:38:25.389Z,23.57
2022-08-12T12:42:43.352Z,23.79
2022-08-12T12:44:50.918Z,23.96
2022-08-12T12:47:56.363Z,24.14
2022-08-12T12:50:59.690Z,24.41
2022-08-12T12:54:08.536Z,24.29
2022-08-12T12:57:11.246Z,24.07
2022-08-12T13:00:15.398Z,24.04
2022-08-12T13:03:19.098Z,24.13
2022-08-12T13:06:22.940Z,23.97
2022-08-12T13:09:36.226Z,23.72
2022-08-12T13:12:38.366Z,23.54
2022-08-12T13:15:45.461Z,23.97
2022-08-12T13:18:49.688Z,24.20
2022-08-12T13:21:54.189Z,24.31
2022-08-12T13:24:58.178Z,24.25
2022-08-12T13:28:00.695Z,24.31
2022-08-12T13:31:03.870Z,24.10
2022-08-12T13:34:32.053Z,24.08
2022-08-12T13:37:28.651Z,24.17
2022-08-12T13:40:46.353Z,23.92
2022-08-12T13:43:48.073Z,24.09
2022-08-12T13:46:58.990Z,24.13
2022-08-12T13:50:02.151Z,24.05
2022-08-12T13:53:24.929Z,24.16
2022-08-12T13:56:35.115Z,24.11
2022-08-12T13:59:48.840Z,24.19
2022-08-12T14:02:57.532Z,23.85
2022-08-12T14:06:01.027Z,23.69
2022-08-12T14:09:17.391Z,23.81
2022-08-12T14:12:19.766Z,23.60
2022-08-12T14:15:35.112Z,23.65
2022-08-12T14:18:39.071Z,23.38
2022-08-12T14:22:01.277Z,23.43
2022-08-12T14:25:04.273Z,23.46
2022-08-12T14:28:10.054Z,23.45
2022-08-12T14:31:16.549Z,23.25
2022-08-12T14:34:20.570Z,23.28
2022-08-12T14:37:56.473Z,23.03
2022-08-12T14:40:53.877Z,23.25
2022-08-12T14:44:04.944Z,23.33
2022-08-12T14:47:17.442Z,23.29
2022-08-12T14:50:58.836Z,23.05
2022-08-12T14:57:20.030Z,22.96
2022-08-12T15:00:28.623Z,23.13
2022-08-12T15:03:52.682Z,23.23
2022-08-12T15:06:53.335Z,23.21
2022-08-12T15:09:55.042Z,23.19
2022-08-12T15:12:58.684Z,23.17
2022-08-12T15:16:01.347Z,23.13
2022-08-12T15:19:22.862Z,23.24
2022-08-12T15:22:37.480Z,23.19
2022-08-12T15:25:47.561Z,23.20
2022-08-12T15:28:53.900Z,23.25
2022-08-12T15:31:59.810Z,23.29
2022-08-12T15:35:11.897Z,23.44
2022-08-12T15:38:17.373Z,23.39
2022-08-12T15:41:21.087Z,23.63
2022-08-12T15:44:38.805Z,23.61
2022-08-12T15:47:49.626Z,23.77
2022-08-12T15:50:52.841Z,23.88
2022-08-12T15:53:56.886Z,23.85
2022-08-12T15:56:59.690Z,23.93
2022-08-12T16:00:07.505Z,24.01
2022-08-12T16:03:14.108Z,24.14
2022-08-12T16:06:35.601Z,24.31
2022-08-12T16:09:56.781Z,24.48
2022-08-12T16:13:12.547Z,24.61
2022-08-12T16:16:23.378Z,24.73
2022-08-12T16:20:04.003Z,24.78
2022-08-12T16:22:51.496Z,25.09
2022-08-12T16:26:05.787Z,25.34
2022-08-12T16:29:15.422Z,25.60
2022-08-12T16:32:19.450Z,26.01
2022-08-12T16:35:21.222Z,26.32
2022-08-12T16:38:33.311Z,26.51
2022-08-12T16:41:39.405Z,26.64
2022-08-12T16:44:46.052Z,26.64
2022-08-12T16:47:58.906Z,26.85
2022-08-12T16:51:03.352Z,27.02
2022-08-12T16:54:05.017Z,26.90
2022-08-12T16:57:14.570Z,26.89
2022-08-12T17:00:18.578Z,27.28
2022-08-12T17:03:28.632Z,27.48
2022-08-12T17:06:30.730Z,27.67
2022-08-12T17:09:34.258Z,27.84
2022-08-12T17:12:42.285Z,27.94
2022-08-12T17:15:57.790Z,27.88
2022-08-12T17:19:09.262Z,27.77
2022-08-12T17:22:11.809Z,27.74
2022-08-12T17:25:14.758Z,27.56
2022-08-12T17:28:17.467Z,27.63
2022-08-12T17:31:19.237Z,27.81
2022-08-12T17:34:42.856Z,27.81
2022-08-12T17:37:44.539Z,27.70
2022-08-12T17:40:46.558Z,27.73
2022-08-12T17:43:55.735Z,27.41
2022-08-12T17:46:59.855Z,27.18
2022-08-12T17:50:06.019Z,27.00
2022-08-12T17:53:10.824Z,26.66
2022-08-12T17:56:13.076Z,25.90
2022-08-12T17:59:48.059Z,25.64
2022-08-12T18:02:41.461Z,24.87
2022-08-12T18:05:59.830Z,24.23
2022-08-12T18:09:08.825Z,23.34
2022-08-12T18:12:11.822Z,22.58
2022-08-12T18:15:26.930Z,22.43
2022-08-12T18:18:36.402Z,21.69
2022-08-12T18:22:01.241Z,21.74
2022-08-12T18:25:04.031Z,21.87
2022-08-12T18:28:15.847Z,21.77
2022-08-12T18:31:19.667Z,21.31
2022-08-12T18:34:24.160Z,21.13
2022-08-12T18:37:42.188Z,20.82
2022-08-12T18:40:45.797Z,20.63
2022-08-12T18:43:59.553Z,20.60
2022-08-12T18:47:02.668Z,20.38
2022-08-12T18:50:10.937Z,19.88
2022-08-12T18:53:31.007Z,19.50
2022-08-12T18:56:38.197Z,19.85
2022-08-12T19:00:01.517Z,20.16
2022-08-12T19:03:03.813Z,20.40
2022-08-12T19:06:06.147Z,20.60
2022-08-12T19:09:10.014Z,20.65
2022-08-12T19:12:12.347Z,20.41
2022-08-12T19:15:22.461Z,20.19
2022-08-12T19:18:24.855Z,20.24
2022-08-12T19:21:31.509Z,20.47
2022-08-12T19:24:34.922Z,20.49
2022-08-12T19:27:39.049Z,20.28
2022-08-12T19:30:52.760Z,20.17
2022-08-12T19:34:25.598Z,20.10
2022-08-12T19:37:18.487Z,19.58
2022-08-12T19:40:32.555Z,19.62
2022-08-12T19:43:59.529Z,19.82
2022-08-12T19:46:57.603Z,19.70
2022-08-12T19:50:02.061Z,19.74
2022-08-12T19:53:04.430Z,19.56
2022-08-12T19:56:11.488Z,19.53
2022-08-12T19:59:13.481Z,19.61
2022-08-12T20:02:20.948Z,19.58
2022-08-12T20:06:08.528Z,19.49
2022-08-12T20:08:57.938Z,19.71
2022-08-12T20:12:13.915Z,19.46
2022-08-12T20:15:18.217Z,19.32
2022-08-12T20:18:44.419Z,19.21
2022-08-12T20:21:42.599Z,19.30
2022-08-12T20:24:44.575Z,19.29
2022-08-12T20:28:05.630Z,19.21
2022-08-12T20:31:07.983Z,19.08
2022-08-12T20:34:12.354Z,18.92
2022-08-12T20:37:14.304Z,18.98
2022-08-12T20:40:17.786Z,18.83
2022-08-12T20:43:27.989Z,18.78
2022-08-12T20:46:30.344Z,18.72
2022-08-12T20:49:33.641Z,18.30
2022-08-12T20:52:35.722Z,18.38
2022-08-12T20:55:42.562Z,18.06
2022-08-12T20:58:46.777Z,17.51
2022-08-12T21:01:49.037Z,17.26
2022-08-12T21:04:50.959Z,17.23
2022-08-12T21:07:52.714Z,17.34
2022-08-12T21:10:54.508Z,17.34
2022-08-12T21:13:59.088Z,17.49
2022-08-12T21:17:01.696Z,17.59
2022-08-12T21:20:06.109Z,17.12
2022-08-12T21:23:13.208Z,16.98
2022-08-12T21:26:16.686Z,16.82
2022-08-12T21:29:20.034Z,17.07
2022-08-12T21:32:40.228Z,17.17
2022-08-12T21:35:43.512Z,17.30
2022-08-12T21:38:45.215Z,17.16
2022-08-12T21:41:51.015Z,17.09
2022-08-12T21:45:45.847Z,16.39
2022-08-12T21:48:16.428Z,16.60
2022-08-12T21:51:23.356Z,16.92
2022-08-12T21:54:25.622Z,16.97
2022-08-12T21:57:28.989Z,16.76
2022-08-12T22:00:34.103Z,16.91
2022-08-12T22:04:04.358Z,16.60
2022-08-12T22:06:59.318Z,16.50
2022-08-12T22:10:01.061Z,16.76
2022-08-12T22:13:04.642Z,16.88
2022-08-12T22:16:09.277Z,16.95
2022-08-12T22:19:13.443Z,17.01
2022-08-12T22:22:15.306Z,16.98
2022-08-12T22:25:16.956Z,17.20
2022-08-12T22:28:24.502Z,17.25
2022-08-12T22:31:28.080Z,17.29
2022-08-12T22:34:33.392Z,17.48
2022-08-12T22:37:35.237Z,17.56
2022-08-12T22:40:45.704Z,17.52
2022-08-12T22:44:00.406Z,17.29
2022-08-12T22:47:04.472Z,16.99
2022-08-12T22:50:09.017Z,16.64
2022-08-12T22:53:36.189Z,16.75
2022-08-12T22:56:38.452Z,16.90
2022-08-12T22:59:55.044Z,16.78
2022-08-12T23:03:02.701Z,16.81
2022-08-12T23:06:10.045Z,16.68
2022-08-12T23:09:12.797Z,16.47
2022-08-12T23:12:24.957Z,16.63
2022-08-12T23:15:26.982Z,16.49
2022-08-12T23:18:33.512Z,16.30
2022-08-12T23:22:03.642Z,16.39
2022-08-12T23:24:57.315Z,15.95
2022-08-12T23:28:02.023Z,15.25
2022-08-12T23:31:04.134Z,15.14
2022-08-12T23:34:07.518Z,15.40
2022-08-12T23:37:11.209Z,15.64
2022-08-12T23:40:17.810Z,15.57
2022-08-12T23:43:20.212Z,15.08
2022-08-12T23:46:26.013Z,14.54
2022-08-12T23:49:57.183Z,14.61
2022-08-12T23:52:52.413Z,14.38
2022-08-12T23:55:54.130Z,14.40
2022-08-12T23:58:57.613Z,14.35
